createdAt,value
2023-02-17T00:01:50.282Z,10.60
2023-02-17T00:04:36.824Z,10.50
2023-02-17T00:07:23.351Z,10.60
2023-02-17T00:10:11.708Z,10.50
2023-02-17T00:12:58.210Z,10.60
2023-02-17T00:15:44.668Z,10.60
2023-02-17T00:18:31.178Z,10.70
2023-02-17T00:21:20.422Z,10.80
2023-02-17T00:24:07.220Z,10.80
2023-02-17T00:26:55.235Z,10.80
2023-02-17T00:29:41.719Z,10.80
2023-02-17T00:32:28.127Z,10.90
2023-02-17T00:35:14.711Z,10.80
2023-02-17T00:38:01.607Z,10.80
2023-02-17T00:40:47.948Z,10.90
2023-02-17T00:43:36.201Z,10.80
2023-02-17T00:46:23.299Z,10.80
2023-02-17T00:49:16.940Z,10.80
2023-02-17T00:52:03.765Z,10.80
2023-02-17T00:54:53.002Z,10.80
2023-02-17T00:57:39.505Z,10.80
2023-02-17T01:00:27.322Z,10.70
2023-02-17T01:03:13.998Z,10.70
2023-02-17T01:06:00.488Z,10.70
2023-02-17T01:08:47.459Z,10.70
2023-02-17T01:11:35.169Z,10.70
2023-02-17T01:14:21.553Z,10.60
2023-02-17T01:17:09.303Z,10.60
2023-02-17T01:19:55.894Z,10.50
2023-02-17T01:22:42.743Z,10.60
2023-02-17T01:25:29.178Z,10.60
2023-02-17T01:28:18.529Z,10.70
2023-02-17T01:31:07.249Z,10.70
2023-02-17T01:33:56.714Z,10.70
2023-02-17T01:36:43.380Z,10.70
2023-02-17T01:39:30.416Z,10.60
2023-02-17T01:42:17.808Z,10.60
2023-02-17T01:45:37.167Z,10.70
2023-02-17T01:48:26.317Z,10.70
2023-02-17T01:51:22.686Z,10.70
2023-02-17T01:54:12.777Z,10.70
2023-02-17T01:57:01.354Z,10.60
2023-02-17T01:59:48.669Z,10.60
2023-02-17T02:02:35.452Z,10.70
2023-02-17T02:05:23.142Z,10.70
2023-02-17T02:08:12.880Z,10.60
2023-02-17T02:10:59.274Z,10.70
2023-02-17T02:13:46.688Z,10.60
2023-02-17T02:16:41.060Z,10.60
2023-02-17T02:19:46.998Z,10.50
2023-02-17T02:23:01.488Z,10.50
2023-02-17T02:26:01.589Z,10.60
2023-02-17T02:29:11.544Z,10.60
2023-02-17T02:32:10.794Z,10.70
2023-02-17T02:35:06.324Z,10.60
2023-02-17T02:38:02.055Z,10.60
2023-02-17T02:40:53.486Z,10.60
2023-02-17T02:43:40.538Z,10.50
2023-02-17T02:46:28.089Z,10.60
2023-02-17T02:49:15.966Z,10.60
2023-02-17T02:52:11.291Z,10.60
2023-02-17T02:55:04.924Z,10.60
2023-02-17T02:58:02.836Z,10.60
2023-02-17T03:00:56.224Z,10.60
2023-02-17T03:03:49.081Z,10.50
2023-02-17T03:06:42.191Z,10.60
2023-02-17T03:09:30.800Z,10.50
2023-02-17T03:12:17.385Z,10.50
2023-02-17T03:15:07.153Z,10.50
2023-02-17T03:17:53.891Z,10.50
2023-02-17T03:20:44.647Z,10.50
2023-02-17T03:23:31.258Z,10.50
2023-02-17T03:26:19.540Z,10.50
2023-02-17T03:29:06.776Z,10.40
2023-02-17T03:31:53.329Z,10.40
2023-02-17T03:34:40.338Z,10.40
2023-02-17T03:37:26.948Z,10.30
2023-02-17T03:40:13.632Z,10.40
2023-02-17T03:43:01.322Z,10.40
2023-02-17T03:45:47.759Z,10.40
2023-02-17T03:48:34.515Z,10.40
2023-02-17T03:51:22.951Z,10.30
2023-02-17T03:54:09.914Z,10.30
2023-02-17T03:56:56.482Z,10.30
2023-02-17T03:59:44.586Z,10.30
2023-02-17T04:02:31.281Z,10.30
2023-02-17T04:05:17.982Z,10.20
2023-02-17T04:08:04.491Z,10.30
2023-02-17T04:10:53.679Z,10.30
2023-02-17T04:13:41.101Z,10.30
2023-02-17T04:16:28.917Z,10.30
2023-02-17T04:19:15.461Z,10.30
2023-02-17T04:22:02.120Z,10.30
2023-02-17T04:24:48.923Z,10.30
2023-02-17T04:27:35.524Z,10.30
2023-02-17T04:30:22.061Z,10.30
2023-02-17T04:33:10.438Z,10.30
2023-02-17T04:35:59.594Z,10.30
2023-02-17T04:38:46.145Z,10.30
2023-02-17T04:41:32.492Z,10.40
2023-02-17T04:44:18.802Z,10.40
2023-02-17T04:47:05.134Z,10.40
2023-02-17T04:49:52.918Z,10.40
2023-02-17T04:52:39.609Z,10.30
2023-02-17T04:55:25.833Z,10.40
2023-02-17T04:58:12.338Z,10.40
2023-02-17T05:01:00.595Z,10.40
2023-02-17T05:03:47.215Z,10.40
2023-02-17T05:06:34.970Z,10.40
2023-02-17T05:09:21.503Z,10.50
2023-02-17T05:12:08.284Z,10.50
2023-02-17T05:14:55.017Z,10.50
2023-02-17T05:17:41.865Z,10.40
2023-02-17T05:20:28.136Z,10.40
2023-02-17T05:23:15.877Z,10.50
2023-02-17T05:26:02.890Z,10.50
2023-02-17T05:28:49.609Z,10.50
2023-02-17T05:31:36.278Z,10.50
2023-02-17T05:34:23.186Z,10.50
2023-02-17T05:37:09.556Z,10.50
2023-02-17T05:39:57.702Z,10.50
2023-02-17T05:42:44.435Z,10.50
2023-02-17T05:45:30.750Z,10.50
2023-02-17T05:48:17.655Z,10.50
2023-02-17T05:51:04.859Z,10.50
2023-02-17T05:53:51.159Z,10.50
2023-02-17T05:56:39.132Z,10.50
2023-02-17T05:59:25.905Z,10.40
2023-02-17T06:02:12.301Z,10.40
2023-02-17T06:04:58.893Z,10.40
2023-02-17T06:07:45.761Z,10.30
2023-02-17T06:10:32.183Z,10.30
2023-02-17T06:13:20.270Z,10.30
2023-02-17T06:16:07.609Z,10.30
2023-02-17T06:18:54.694Z,10.30
2023-02-17T06:21:41.082Z,10.30
2023-02-17T06:24:27.508Z,10.30
2023-02-17T06:27:14.068Z,10.30
2023-02-17T06:30:01.885Z,10.30
2023-02-17T06:32:49.177Z,10.30
2023-02-17T06:35:36.155Z,10.30
2023-02-17T06:38:22.710Z,10.30
2023-02-17T06:41:09.554Z,10.30
2023-02-17T06:43:56.016Z,10.30
2023-02-17T06:46:45.990Z,10.30
2023-02-17T06:49:32.535Z,10.30
2023-02-17T06:52:18.977Z,10.30
2023-02-17T06:55:06.121Z,10.30
2023-02-17T06:57:52.871Z,10.20
2023-02-17T07:00:39.736Z,10.30
2023-02-17T07:03:27.913Z,10.30
2023-02-17T07:06:15.186Z,10.20
2023-02-17T07:09:02.519Z,10.20
2023-02-17T07:11:51.039Z,10.30
2023-02-17T07:14:37.894Z,10.20
2023-02-17T07:17:24.655Z,10.20
2023-02-17T07:20:13.675Z,10.30
2023-02-17T07:23:00.727Z,10.30
2023-02-17T07:25:47.205Z,10.30
2023-02-17T07:28:33.695Z,10.40
2023-02-17T07:31:20.337Z,10.40
2023-02-17T07:34:07.219Z,10.50
2023-02-17T07:36:55.079Z,10.60
2023-02-17T07:39:42.028Z,10.60
2023-02-17T07:42:29.462Z,10.50
2023-02-17T07:45:15.793Z,10.60
2023-02-17T07:48:02.228Z,10.60
2023-02-17T07:50:49.063Z,10.60
2023-02-17T07:53:37.518Z,10.60
2023-02-17T07:56:24.636Z,10.70
2023-02-17T07:59:11.753Z,10.70
2023-02-17T08:01:58.330Z,10.70
2023-02-17T08:04:45.597Z,10.70
2023-02-17T08:07:32.979Z,10.70
2023-02-17T08:10:38.913Z,10.70
2023-02-17T08:13:26.695Z,10.60
2023-02-17T08:16:13.386Z,10.60
2023-02-17T08:18:59.828Z,10.70
2023-02-17T08:21:46.805Z,10.70
2023-02-17T08:24:33.427Z,10.70
2023-02-17T08:27:21.565Z,10.60
2023-02-17T08:30:09.856Z,10.60
2023-02-17T08:32:56.388Z,10.60
2023-02-17T08:35:43.773Z,10.70
2023-02-17T08:38:30.138Z,10.70
2023-02-17T08:41:17.611Z,10.60
2023-02-17T08:44:09.529Z,10.60
2023-02-17T08:46:56.178Z,10.60
2023-02-17T08:49:42.768Z,10.70
2023-02-17T08:52:29.148Z,10.80
2023-02-17T08:55:18.437Z,11.00
2023-02-17T08:58:05.152Z,11.10
2023-02-17T09:00:53.653Z,11.00
2023-02-17T09:03:41.659Z,11.00
2023-02-17T09:06:34.535Z,11.00
2023-02-17T09:09:26.745Z,11.00
2023-02-17T09:12:13.770Z,11.10
2023-02-17T09:15:00.536Z,11.10
2023-02-17T09:17:48.900Z,11.30
2023-02-17T09:20:35.524Z,11.40
2023-02-17T09:23:22.603Z,11.40
2023-02-17T09:26:12.568Z,11.30
2023-02-17T09:28:59.198Z,11.30
2023-02-17T09:31:46.347Z,11.30
2023-02-17T09:34:37.346Z,11.30
2023-02-17T09:37:24.780Z,11.30
2023-02-17T09:40:18.713Z,11.30
2023-02-17T09:43:05.735Z,11.30
2023-02-17T09:45:56.187Z,11.30
2023-02-17T09:48:45.498Z,11.30
2023-02-17T09:51:38.717Z,11.30
2023-02-17T09:54:30.670Z,11.40
2023-02-17T09:57:21.861Z,11.40
2023-02-17T10:00:12.862Z,11.60
2023-02-17T10:03:05.725Z,11.60
2023-02-17T10:05:59.417Z,11.50
2023-02-17T10:08:52.451Z,11.50
2023-02-17T10:11:43.884Z,11.60
2023-02-17T10:14:34.516Z,11.60
2023-02-17T10:17:27.814Z,11.60
2023-02-17T10:20:19.040Z,11.60
2023-02-17T10:23:09.545Z,11.70
2023-02-17T10:26:14.593Z,11.70
2023-02-17T10:29:06.252Z,11.70
2023-02-17T10:32:06.631Z,11.90
2023-02-17T10:35:13.185Z,11.90
2023-02-17T10:38:07.641Z,11.90
2023-02-17T10:40:56.455Z,12.10
2023-02-17T10:43:45.683Z,12.30
2023-02-17T10:46:34.976Z,12.40
2023-02-17T10:49:27.955Z,12.30
2023-02-17T10:52:17.398Z,12.30
2023-02-17T10:55:22.072Z,12.40
2023-02-17T10:58:18.762Z,12.60
2023-02-17T11:01:07.541Z,12.70
2023-02-17T11:04:02.755Z,12.80
2023-02-17T11:06:51.904Z,12.90
2023-02-17T11:09:45.877Z,12.90
2023-02-17T11:12:39.844Z,13.10
2023-02-17T11:15:30.025Z,13.30
2023-02-17T11:18:22.735Z,13.20
2023-02-17T11:21:11.481Z,13.00
2023-02-17T11:24:02.226Z,12.90
2023-02-17T11:26:58.397Z,12.70
2023-02-17T11:29:44.756Z,12.70
2023-02-17T11:32:32.685Z,12.80
2023-02-17T11:35:26.254Z,13.00
2023-02-17T11:38:16.306Z,13.10
2023-02-17T11:41:06.819Z,13.10
2023-02-17T11:43:55.514Z,13.00
2023-02-17T11:46:47.846Z,13.10
2023-02-17T11:50:00.522Z,13.10
2023-02-17T11:53:13.948Z,13.00
2023-02-17T11:56:14.585Z,13.10
2023-02-17T11:59:19.008Z,13.00
2023-02-17T12:02:16.823Z,13.10
2023-02-17T12:05:13.337Z,13.00
2023-02-17T12:08:11.796Z,12.90
2023-02-17T12:11:09.160Z,12.90
2023-02-17T12:14:10.759Z,12.90
2023-02-17T12:17:05.236Z,12.90
2023-02-17T12:20:07.077Z,13.00
2023-02-17T12:23:06.721Z,13.10
2023-02-17T12:25:58.456Z,13.20
2023-02-17T12:29:04.704Z,13.10
2023-02-17T12:32:13.841Z,13.00
2023-02-17T12:35:04.807Z,13.20
2023-02-17T12:37:55.976Z,13.10
2023-02-17T12:40:48.675Z,13.20
2023-02-17T12:43:40.765Z,13.30
2023-02-17T12:46:33.358Z,13.40
2023-02-17T12:49:24.355Z,13.60
2023-02-17T12:52:17.110Z,13.70
2023-02-17T12:55:12.574Z,13.80
2023-02-17T12:58:04.243Z,13.80
2023-02-17T13:00:55.590Z,13.80
2023-02-17T13:03:42.303Z,13.80
2023-02-17T13:06:33.980Z,13.90
2023-02-17T13:09:30.497Z,13.90
2023-02-17T13:12:32.882Z,14.00
2023-02-17T13:15:31.788Z,14.00
2023-02-17T13:18:29.515Z,13.90
2023-02-17T13:21:28.555Z,14.00
2023-02-17T13:24:31.285Z,14.00
2023-02-17T13:27:23.566Z,14.00
2023-02-17T13:30:31.994Z,14.00
2023-02-17T13:33:30.676Z,13.90
2023-02-17T13:36:22.561Z,13.80
2023-02-17T13:39:32.302Z,13.80
2023-02-17T13:42:35.323Z,13.80
2023-02-17T13:45:26.128Z,13.60
2023-02-17T13:48:16.398Z,13.60
2023-02-17T13:51:04.689Z,13.60
2023-02-17T13:53:51.739Z,13.60
2023-02-17T13:56:38.113Z,13.50
2023-02-17T13:59:27.345Z,13.40
2023-02-17T14:02:35.115Z,13.30
2023-02-17T14:05:28.393Z,13.30
2023-02-17T14:08:19.254Z,13.30
2023-02-17T14:11:10.444Z,13.30
2023-02-17T14:13:58.656Z,13.30
2023-02-17T14:16:45.556Z,13.20
2023-02-17T14:19:43.357Z,13.00
2023-02-17T14:22:32.582Z,13.00
2023-02-17T14:25:28.680Z,13.00
2023-02-17T14:28:20.679Z,12.80
2023-02-17T14:31:11.579Z,12.80
2023-02-17T14:34:01.297Z,12.70
2023-02-17T14:36:48.326Z,12.70
2023-02-17T14:39:36.603Z,12.70
2023-02-17T14:42:23.134Z,12.60
2023-02-17T14:45:10.549Z,12.70
2023-02-17T14:47:58.728Z,12.70
2023-02-17T14:50:46.931Z,12.70
2023-02-17T14:53:36.487Z,12.70
2023-02-17T14:56:27.017Z,12.60
2023-02-17T14:59:13.453Z,12.70
2023-02-17T15:02:00.728Z,12.70
2023-02-17T15:04:48.046Z,12.70
2023-02-17T15:07:35.079Z,12.80
2023-02-17T15:10:28.020Z,12.80
2023-02-17T15:13:18.339Z,12.80
2023-02-17T15:16:07.332Z,12.80
2023-02-17T15:18:54.047Z,12.80
2023-02-17T15:21:44.161Z,12.80
2023-02-17T15:24:34.260Z,12.80
2023-02-17T15:27:21.009Z,12.80
2023-02-17T15:30:12.901Z,12.80
2023-02-17T15:32:59.616Z,12.80
2023-02-17T15:35:48.014Z,12.80
2023-02-17T15:38:34.780Z,12.80
2023-02-17T15:41:24.005Z,12.80
2023-02-17T15:44:16.548Z,12.80
2023-02-17T15:47:04.427Z,12.70
2023-02-17T15:49:50.782Z,12.70
2023-02-17T15:52:37.082Z,12.70
2023-02-17T15:55:24.533Z,12.70
2023-02-17T15:58:16.559Z,12.70
2023-02-17T16:01:04.043Z,12.80
2023-02-17T16:03:52.238Z,12.70
2023-02-17T16:06:38.821Z,12.80
2023-02-17T16:09:25.394Z,12.80
2023-02-17T16:12:16.935Z,12.70
2023-02-17T16:15:04.018Z,12.70
2023-02-17T16:17:51.709Z,12.70
2023-02-17T16:20:39.643Z,12.70
2023-02-17T16:23:26.529Z,12.80
2023-02-17T16:26:17.071Z,12.70
2023-02-17T16:29:11.492Z,12.70
2023-02-17T16:31:58.054Z,12.70
2023-02-17T16:34:44.992Z,12.70
2023-02-17T16:37:32.630Z,12.70
2023-02-17T16:40:20.601Z,12.80
2023-02-17T16:43:07.157Z,12.70
2023-02-17T16:45:56.456Z,12.70
2023-02-17T16:48:43.837Z,12.70
2023-02-17T16:51:31.409Z,12.70
2023-02-17T16:54:19.970Z,12.70
2023-02-17T16:57:06.618Z,12.60
2023-02-17T16:59:52.924Z,12.60
2023-02-17T17:02:39.554Z,12.60
2023-02-17T17:05:27.872Z,12.60
2023-02-17T17:08:16.517Z,12.60
2023-02-17T17:11:04.242Z,12.60
2023-02-17T17:13:51.196Z,12.50
2023-02-17T17:16:40.113Z,12.50
2023-02-17T17:19:26.688Z,12.50
2023-02-17T17:22:13.234Z,12.50
2023-02-17T17:24:59.614Z,12.50
2023-02-17T17:27:47.863Z,12.50
2023-02-17T17:30:37.205Z,12.60
2023-02-17T17:33:24.521Z,12.60
2023-02-17T17:36:19.071Z,12.60
2023-02-17T17:39:08.533Z,12.50
2023-02-17T17:41:56.321Z,12.50
2023-02-17T17:44:44.333Z,12.50
2023-02-17T17:47:31.122Z,12.50
2023-02-17T17:50:21.752Z,12.40
2023-02-17T17:53:08.483Z,12.50
2023-02-17T17:55:54.881Z,12.50
2023-02-17T17:58:41.562Z,12.50
2023-02-17T18:01:30.115Z,12.50
2023-02-17T18:04:16.867Z,12.40
2023-02-17T18:07:03.967Z,12.40
2023-02-17T18:09:50.669Z,12.40
2023-02-17T18:12:37.826Z,12.40
2023-02-17T18:15:24.435Z,12.30
2023-02-17T18:18:12.600Z,12.30
2023-02-17T18:21:01.027Z,12.30
2023-02-17T18:23:48.022Z,12.30
2023-02-17T18:26:35.147Z,12.30
2023-02-17T18:29:21.881Z,12.20
2023-02-17T18:32:09.095Z,12.30
2023-02-17T18:34:58.412Z,12.20
2023-02-17T18:37:45.339Z,12.30
2023-02-17T18:40:32.634Z,12.30
2023-02-17T18:43:19.225Z,12.20
2023-02-17T18:46:09.739Z,12.20
2023-02-17T18:48:56.965Z,12.20
2023-02-17T18:51:45.145Z,12.20
2023-02-17T18:54:31.500Z,12.20
2023-02-17T18:57:18.686Z,12.20
2023-02-17T19:00:09.069Z,12.20
2023-02-17T19:02:55.933Z,12.20
2023-02-17T19:05:42.740Z,12.20
2023-02-17T19:08:30.912Z,12.20
2023-02-17T19:11:19.251Z,12.20
2023-02-17T19:14:05.648Z,12.20
2023-02-17T19:16:52.066Z,12.20
2023-02-17T19:19:38.835Z,12.20
2023-02-17T19:22:25.864Z,12.10
2023-02-17T19:25:14.100Z,12.00
2023-02-17T19:28:00.439Z,12.00
2023-02-17T19:30:46.927Z,11.90
2023-02-17T19:33:34.028Z,11.90
2023-02-17T19:36:21.883Z,11.80
2023-02-17T19:39:08.745Z,11.90
2023-02-17T19:41:57.066Z,11.80
2023-02-17T19:44:44.050Z,11.80
2023-02-17T19:47:31.645Z,11.80
2023-02-17T19:50:19.238Z,11.80
2023-02-17T19:53:06.043Z,11.80
2023-02-17T19:55:52.728Z,11.70
2023-02-17T19:58:40.762Z,11.80
2023-02-17T20:01:29.882Z,11.70
2023-02-17T20:04:16.949Z,11.70
2023-02-17T20:07:03.472Z,11.70
2023-02-17T20:09:50.571Z,11.70
2023-02-17T20:12:37.149Z,11.70
2023-02-17T20:15:25.760Z,11.70
2023-02-17T20:18:12.730Z,11.70
2023-02-17T20:20:59.543Z,11.70
2023-02-17T20:23:47.298Z,11.60
2023-02-17T20:26:39.085Z,11.60
2023-02-17T20:29:26.259Z,11.60
2023-02-17T20:32:13.912Z,11.60
2023-02-17T20:35:00.639Z,11.60
2023-02-17T20:37:47.502Z,11.60
2023-02-17T20:40:34.778Z,11.60
2023-02-17T20:43:21.299Z,11.60
2023-02-17T20:46:08.387Z,11.60
2023-02-17T20:48:57.123Z,11.60
2023-02-17T20:51:43.459Z,11.60
2023-02-17T20:54:30.289Z,11.70
2023-02-17T20:57:20.284Z,11.60
2023-02-17T21:00:24.660Z,11.70
2023-02-17T21:03:17.610Z,11.70
2023-02-17T21:06:12.951Z,11.70
2023-02-17T21:09:00.985Z,11.70
2023-02-17T21:11:47.975Z,11.70
2023-02-17T21:14:34.528Z,11.80
2023-02-17T21:17:21.149Z,11.80
2023-02-17T21:20:18.150Z,11.80
2023-02-17T21:23:06.368Z,11.80
2023-02-17T21:25:53.070Z,11.80
2023-02-17T21:28:39.897Z,11.80
2023-02-17T21:31:27.727Z,11.80
2023-02-17T21:34:14.469Z,11.80
2023-02-17T21:37:01.297Z,11.90
2023-02-17T21:39:49.007Z,11.90
2023-02-17T21:42:55.348Z,11.90
2023-02-17T21:45:44.569Z,11.90
2023-02-17T21:48:31.342Z,11.90
2023-02-17T21:51:18.826Z,12.00
2023-02-17T21:54:06.262Z,11.90
2023-02-17T21:56:54.341Z,12.00
2023-02-17T21:59:41.662Z,12.00
2023-02-17T22:02:28.128Z,12.00
2023-02-17T22:05:14.758Z,12.00
2023-02-17T22:08:01.057Z,12.00
2023-02-17T22:10:47.509Z,12.00
2023-02-17T22:13:35.190Z,12.00
2023-02-17T22:16:21.691Z,12.10
2023-02-17T22:19:10.598Z,12.00
2023-02-17T22:21:57.484Z,12.10
2023-02-17T22:24:44.161Z,12.10
2023-02-17T22:27:30.947Z,12.10
2023-02-17T22:30:18.947Z,12.10
2023-02-17T22:33:05.794Z,12.20
2023-02-17T22:35:58.385Z,12.20
2023-02-17T22:38:45.155Z,12.20
2023-02-17T22:41:32.030Z,12.20
2023-02-17T22:44:19.186Z,12.10
2023-02-17T22:47:07.185Z,12.20
2023-02-17T22:49:53.476Z,12.20
2023-02-17T22:52:39.920Z,12.20
2023-02-17T22:55:26.439Z,12.20
2023-02-17T22:58:13.232Z,12.20
2023-02-17T23:01:08.357Z,12.20
2023-02-17T23:03:56.311Z,12.20
2023-02-17T23:06:43.762Z,12.20
2023-02-17T23:09:30.374Z,12.20
2023-02-17T23:12:16.745Z,12.30
2023-02-17T23:15:03.469Z,12.20
2023-02-17T23:17:58.633Z,12.20
2023-02-17T23:20:49.445Z,12.30
2023-02-17T23:23:36.422Z,12.30
2023-02-17T23:26:22.700Z,12.30
2023-02-17T23:29:09.534Z,12.20
2023-02-17T23:31:56.643Z,12.30
2023-02-17T23:34:43.050Z,12.30
2023-02-17T23:37:30.803Z,12.30
2023-02-17T23:40:17.736Z,12.20
2023-02-17T23:43:04.930Z,12.30
2023-02-17T23:45:51.810Z,12.30
2023-02-17T23:48:38.840Z,12.30
2023-02-17T23:51:25.437Z,12.30
2023-02-17T23:54:13.475Z,12.30
2023-02-17T23:57:00.104Z,12.30
2023-02-17T23:59:46.944Z,12.30
